createdAt,value
2024-01-29T00:00:31.823Z,12.30
2024-01-29T00:02:59.441Z,11.20
2024-01-29T00:05:27.052Z,11.40
2024-01-29T00:07:54.564Z,11.20
2024-01-29T00:10:23.506Z,11.90
2024-01-29T00:12:51.164Z,11.60
2024-01-29T00:15:19.259Z,12.90
2024-01-29T00:17:46.855Z,11.80
2024-01-29T00:20:14.686Z,13.60
2024-01-29T00:22:42.093Z,13.30
2024-01-29T00:25:09.703Z,13.30
2024-01-29T00:27:37.468Z,13.80
2024-01-29T00:30:07.343Z,13.80
2024-01-29T00:32:34.999Z,14.90
2024-01-29T00:35:02.527Z,13.30
2024-01-29T00:37:30.822Z,13.90
2024-01-29T00:39:58.270Z,13.70
2024-01-29T00:42:25.823Z,13.90
2024-01-29T00:44:53.301Z,13.90
2024-01-29T00:47:21.860Z,14.30
2024-01-29T00:49:49.388Z,15.10
2024-01-29T00:52:16.883Z,13.70
2024-01-29T00:54:44.352Z,13.70
2024-01-29T00:57:13.245Z,13.70
2024-01-29T00:59:40.609Z,13.90
2024-01-29T01:02:07.965Z,13.00
2024-01-29T01:04:35.518Z,13.40
2024-01-29T01:07:03.104Z,14.20
2024-01-29T01:09:30.686Z,14.10
2024-01-29T01:11:58.102Z,13.80
2024-01-29T01:14:25.458Z,14.50
2024-01-29T01:16:52.982Z,15.20
2024-01-29T01:19:20.513Z,13.60
2024-01-29T01:21:49.001Z,14.20
2024-01-29T01:24:16.387Z,15.70
2024-01-29T01:26:43.917Z,14.20
2024-01-29T01:29:11.390Z,14.70
2024-01-29T01:31:38.877Z,13.80
2024-01-29T01:34:06.389Z,14.30
2024-01-29T01:36:33.959Z,14.60
2024-01-29T01:39:01.444Z,13.40
2024-01-29T01:43:23.336Z,13.90
2024-01-29T01:46:07.955Z,14.50
2024-01-29T01:48:35.855Z,14.30
2024-01-29T01:51:04.334Z,12.70
2024-01-29T01:53:36.521Z,13.30
2024-01-29T01:56:04.183Z,12.50
2024-01-29T01:58:33.608Z,12.30
2024-01-29T02:01:01.097Z,12.30
2024-01-29T02:03:28.688Z,11.70
2024-01-29T02:05:56.439Z,13.20
2024-01-29T02:08:24.980Z,12.80
2024-01-29T02:10:52.508Z,12.00
2024-01-29T02:13:19.910Z,11.40
2024-01-29T02:15:47.271Z,11.90
2024-01-29T02:18:14.751Z,11.10
2024-01-29T02:20:42.716Z,11.00
2024-01-29T02:23:10.123Z,10.40
2024-01-29T02:25:37.764Z,8.90
2024-01-29T02:28:05.543Z,9.20
2024-01-29T02:30:33.048Z,9.00
2024-01-29T02:33:00.793Z,9.40
2024-01-29T02:35:28.537Z,8.70
2024-01-29T02:37:55.996Z,9.60
2024-01-29T02:40:23.780Z,8.40
2024-01-29T02:42:51.222Z,8.90
2024-01-29T02:45:18.696Z,8.50
2024-01-29T02:47:46.146Z,9.80
2024-01-29T02:50:13.664Z,8.70
2024-01-29T02:52:41.045Z,8.90
2024-01-29T02:55:08.570Z,10.30
2024-01-29T02:57:36.162Z,9.10
2024-01-29T03:00:05.916Z,8.60
2024-01-29T03:02:33.366Z,8.50
2024-01-29T03:05:00.873Z,9.00
2024-01-29T03:07:28.393Z,9.40
2024-01-29T03:09:55.900Z,9.10
2024-01-29T03:12:23.325Z,10.30
2024-01-29T03:14:50.769Z,9.50
2024-01-29T03:17:18.195Z,10.70
2024-01-29T03:19:45.697Z,10.20
2024-01-29T03:22:13.282Z,10.10
2024-01-29T03:24:40.789Z,11.40
2024-01-29T03:27:08.196Z,11.30
2024-01-29T03:29:36.023Z,11.30
2024-01-29T03:32:03.597Z,11.10
2024-01-29T03:34:31.032Z,12.20
2024-01-29T03:36:58.454Z,11.60
2024-01-29T03:39:25.876Z,12.30
2024-01-29T03:41:53.563Z,12.70
2024-01-29T03:44:20.909Z,12.70
2024-01-29T03:46:48.353Z,12.50
2024-01-29T03:49:15.781Z,12.70
2024-01-29T03:51:43.258Z,12.90
2024-01-29T03:54:11.029Z,12.80
2024-01-29T03:56:38.506Z,12.70
2024-01-29T03:59:05.935Z,13.10
2024-01-29T04:01:33.363Z,12.70
2024-01-29T04:04:01.319Z,14.00
2024-01-29T04:06:28.948Z,14.20
2024-01-29T04:08:56.584Z,14.80
2024-01-29T04:11:24.432Z,15.10
2024-01-29T04:13:51.842Z,14.40
2024-01-29T04:16:19.262Z,13.90
2024-01-29T04:18:46.836Z,12.80
2024-01-29T04:21:15.460Z,13.30
2024-01-29T04:23:42.815Z,12.20
2024-01-29T04:26:10.187Z,12.50
2024-01-29T04:28:37.557Z,12.00
2024-01-29T04:31:08.863Z,12.70
2024-01-29T04:33:39.421Z,11.90
2024-01-29T04:36:07.503Z,12.30
2024-01-29T04:38:34.841Z,12.80
2024-01-29T04:41:02.230Z,14.10
2024-01-29T04:43:29.617Z,14.20
2024-01-29T04:45:57.128Z,13.20
2024-01-29T04:48:26.754Z,13.00
2024-01-29T04:50:58.761Z,14.10
2024-01-29T04:53:26.468Z,14.10
2024-01-29T04:55:54.921Z,14.10
2024-01-29T04:58:22.881Z,13.80
2024-01-29T05:00:50.376Z,14.10
2024-01-29T05:03:17.863Z,13.10
2024-01-29T05:05:45.507Z,13.90
2024-01-29T05:08:14.425Z,13.80
2024-01-29T05:10:42.641Z,12.10
2024-01-29T05:13:10.085Z,12.00
2024-01-29T05:15:37.559Z,11.20
2024-01-29T05:18:06.027Z,12.20
2024-01-29T05:20:33.470Z,12.20
2024-01-29T05:23:00.932Z,11.80
2024-01-29T05:25:28.314Z,11.10
2024-01-29T05:27:55.892Z,11.80
2024-01-29T05:30:24.513Z,11.40
2024-01-29T05:32:52.096Z,10.90
2024-01-29T05:35:19.801Z,10.90
2024-01-29T05:37:47.167Z,8.10
2024-01-29T05:40:14.644Z,7.00
2024-01-29T05:42:42.335Z,7.20
2024-01-29T05:45:10.044Z,6.50
2024-01-29T05:47:38.461Z,6.90
2024-01-29T05:50:07.610Z,7.80
2024-01-29T05:52:34.989Z,7.40
2024-01-29T05:55:02.520Z,8.00
2024-01-29T05:57:30.077Z,8.50
2024-01-29T05:59:57.617Z,9.30
2024-01-29T06:02:25.254Z,7.60
2024-01-29T06:04:53.012Z,8.10
2024-01-29T06:07:20.593Z,15.50
2024-01-29T06:09:48.074Z,8.00
2024-01-29T06:12:15.458Z,5.90
2024-01-29T06:14:43.099Z,6.60
2024-01-29T06:17:10.956Z,5.70
2024-01-29T06:19:53.484Z,6.10
2024-01-29T06:22:25.896Z,6.50
2024-01-29T06:24:53.299Z,7.40
2024-01-29T06:27:20.788Z,6.90
2024-01-29T06:29:48.189Z,6.40
2024-01-29T06:32:15.587Z,7.70
2024-01-29T06:34:43.317Z,7.10
2024-01-29T06:37:10.871Z,6.00
2024-01-29T06:39:38.492Z,7.10
2024-01-29T06:42:06.120Z,6.60
2024-01-29T06:44:33.561Z,7.00
2024-01-29T06:47:00.946Z,6.70
2024-01-29T06:49:29.640Z,6.90
2024-01-29T06:51:57.216Z,7.10
2024-01-29T06:54:26.267Z,8.40
2024-01-29T06:56:54.209Z,9.00
2024-01-29T06:59:21.628Z,7.90
2024-01-29T07:01:49.204Z,8.50
2024-01-29T07:04:16.841Z,7.30
2024-01-29T07:06:45.540Z,8.10
2024-01-29T07:09:13.092Z,7.50
2024-01-29T07:11:40.539Z,7.50
2024-01-29T07:14:07.960Z,7.70
2024-01-29T07:16:35.376Z,8.60
2024-01-29T07:19:03.759Z,19.00
2024-01-29T07:21:31.523Z,10.00
2024-01-29T07:23:58.913Z,6.80
2024-01-29T07:26:26.486Z,6.70
2024-01-29T07:28:53.821Z,6.90
2024-01-29T07:31:21.470Z,7.20
2024-01-29T07:33:48.960Z,6.50
2024-01-29T07:36:16.546Z,6.70
2024-01-29T07:38:44.084Z,6.90
2024-01-29T07:41:11.435Z,6.50
2024-01-29T07:43:38.770Z,9.00
2024-01-29T07:46:06.847Z,7.00
2024-01-29T07:48:34.475Z,8.10
2024-01-29T07:51:02.001Z,7.30
2024-01-29T07:53:29.442Z,7.20
2024-01-29T07:55:57.140Z,6.80
2024-01-29T07:58:25.447Z,6.40
2024-01-29T08:00:53.227Z,6.50
2024-01-29T08:03:20.812Z,6.30
2024-01-29T08:05:48.269Z,6.10
2024-01-29T08:08:15.865Z,6.30
2024-01-29T08:10:43.253Z,7.50
2024-01-29T08:13:10.628Z,6.70
2024-01-29T08:15:38.391Z,6.60
2024-01-29T08:18:06.921Z,7.30
2024-01-29T08:20:34.598Z,7.10
2024-01-29T08:23:02.187Z,6.40
2024-01-29T08:25:29.580Z,6.80
2024-01-29T08:27:57.550Z,7.10
2024-01-29T08:30:25.123Z,7.30
2024-01-29T08:32:52.608Z,7.20
2024-01-29T08:35:20.074Z,6.60
2024-01-29T08:37:47.781Z,6.80
2024-01-29T08:40:15.808Z,6.40
2024-01-29T08:42:43.461Z,6.10
2024-01-29T08:45:16.176Z,6.40
2024-01-29T08:47:44.693Z,6.90
2024-01-29T08:50:12.231Z,6.60
2024-01-29T08:52:40.840Z,5.60
2024-01-29T08:55:09.659Z,6.20
2024-01-29T08:57:37.152Z,5.30
2024-01-29T09:00:05.928Z,6.40
2024-01-29T09:02:34.761Z,6.70
2024-01-29T09:05:02.526Z,6.30
2024-01-29T09:07:30.123Z,6.90
2024-01-29T09:12:45.305Z,7.20
2024-01-29T09:15:13.070Z,6.80
2024-01-29T09:17:43.564Z,6.90
2024-01-29T09:20:13.475Z,6.90
2024-01-29T09:22:41.139Z,7.60
2024-01-29T09:25:09.522Z,8.20
2024-01-29T09:27:37.388Z,8.60
2024-01-29T09:30:08.837Z,8.50
2024-01-29T09:32:36.257Z,8.00
2024-01-29T09:35:05.658Z,7.70
2024-01-29T09:37:33.186Z,7.90
2024-01-29T09:40:00.655Z,8.20
2024-01-29T09:42:32.160Z,8.10
2024-01-29T09:45:00.827Z,8.70
2024-01-29T09:47:28.334Z,8.10
2024-01-29T09:49:56.537Z,8.20
2024-01-29T09:52:24.501Z,8.40
2024-01-29T09:54:52.062Z,8.10
2024-01-29T09:57:19.648Z,7.90
2024-01-29T09:59:47.405Z,8.00
2024-01-29T10:02:14.872Z,7.70
2024-01-29T10:04:42.936Z,8.00
2024-01-29T10:07:12.222Z,7.90
2024-01-29T10:09:40.021Z,7.80
2024-01-29T10:12:07.995Z,8.20
2024-01-29T10:14:36.051Z,8.00
2024-01-29T10:17:03.530Z,7.80
2024-01-29T10:19:38.850Z,8.00
2024-01-29T10:22:14.025Z,7.80
2024-01-29T10:24:42.139Z,7.80
2024-01-29T10:27:10.123Z,7.20
2024-01-29T10:29:48.550Z,7.70
2024-01-29T10:32:15.906Z,7.50
2024-01-29T10:34:43.490Z,7.70
2024-01-29T10:37:11.018Z,7.80
2024-01-29T10:39:46.572Z,7.50
2024-01-29T10:42:18.461Z,7.60
2024-01-29T10:44:45.830Z,7.30
2024-01-29T10:47:29.279Z,6.90
2024-01-29T10:50:00.302Z,7.40
2024-01-29T10:52:28.106Z,7.10
2024-01-29T10:54:56.973Z,7.40
2024-01-29T10:57:24.516Z,7.20
2024-01-29T10:59:51.916Z,6.60
2024-01-29T11:02:19.492Z,7.20
2024-01-29T11:04:47.160Z,6.60
2024-01-29T11:07:22.570Z,6.50
2024-01-29T11:10:15.543Z,7.40
2024-01-29T11:12:43.039Z,7.40
2024-01-29T11:15:10.670Z,6.50
2024-01-29T11:17:40.573Z,6.80
2024-01-29T11:20:15.547Z,6.80
2024-01-29T11:22:51.920Z,6.80
2024-01-29T11:25:20.239Z,6.50
2024-01-29T11:27:49.000Z,7.10
2024-01-29T11:30:21.869Z,6.30
2024-01-29T11:32:50.449Z,6.50
2024-01-29T11:35:28.126Z,6.30
2024-01-29T11:40:54.602Z,6.80
2024-01-29T11:43:22.309Z,6.30
2024-01-29T11:45:51.624Z,6.50
2024-01-29T11:48:21.038Z,6.30
2024-01-29T11:50:49.794Z,6.00
2024-01-29T11:53:18.647Z,5.90
2024-01-29T11:55:48.566Z,6.20
2024-01-29T11:58:20.596Z,6.50
2024-01-29T12:00:49.679Z,6.00
2024-01-29T12:03:23.429Z,5.90
2024-01-29T12:05:53.168Z,6.00
2024-01-29T12:08:21.883Z,6.20
2024-01-29T12:10:49.613Z,7.00
2024-01-29T12:13:20.499Z,6.50
2024-01-29T12:15:50.711Z,6.60
2024-01-29T12:18:20.782Z,6.10
2024-01-29T12:20:49.278Z,6.50
2024-01-29T12:23:18.272Z,6.20
2024-01-29T12:25:47.116Z,6.90
2024-01-29T12:28:17.804Z,6.10
2024-01-29T12:30:54.052Z,7.30
2024-01-29T12:33:28.984Z,6.60
2024-01-29T12:35:57.767Z,6.70
2024-01-29T12:38:25.651Z,7.80
2024-01-29T12:40:59.252Z,8.00
2024-01-29T12:43:28.531Z,6.70
2024-01-29T12:46:15.061Z,6.70
2024-01-29T12:48:43.940Z,7.50
2024-01-29T12:51:13.014Z,6.40
2024-01-29T12:53:44.409Z,7.10
2024-01-29T12:56:12.768Z,8.00
2024-01-29T12:58:40.129Z,7.30
2024-01-29T13:01:07.671Z,8.40
2024-01-29T13:03:35.482Z,6.80
2024-01-29T13:06:04.277Z,7.80
2024-01-29T13:08:32.999Z,8.00
2024-01-29T13:11:01.407Z,7.40
2024-01-29T13:13:28.856Z,7.70
2024-01-29T13:15:56.868Z,7.50
2024-01-29T13:18:26.912Z,7.40
2024-01-29T13:20:54.628Z,7.50
2024-01-29T13:23:23.501Z,7.00
2024-01-29T13:25:51.591Z,7.00
2024-01-29T13:28:19.128Z,7.70
2024-01-29T13:30:46.852Z,7.70
2024-01-29T13:33:14.716Z,8.60
2024-01-29T13:35:42.400Z,7.90
2024-01-29T13:38:09.823Z,7.50
2024-01-29T13:40:37.267Z,7.90
2024-01-29T13:43:04.923Z,7.30
2024-01-29T13:45:33.636Z,7.00
2024-01-29T13:48:01.217Z,6.00
2024-01-29T13:50:28.818Z,6.60
2024-01-29T13:52:56.809Z,5.40
2024-01-29T13:55:25.485Z,5.30
2024-01-29T13:57:53.086Z,5.20
2024-01-29T14:02:03.219Z,6.20
2024-01-29T14:04:30.846Z,6.80
2024-01-29T14:07:02.504Z,7.20
2024-01-29T14:09:30.155Z,8.10
2024-01-29T14:11:57.695Z,6.80
2024-01-29T14:14:34.009Z,7.60
2024-01-29T14:17:05.837Z,6.60
2024-01-29T14:19:33.335Z,8.40
2024-01-29T14:22:00.903Z,7.40
2024-01-29T14:24:28.872Z,8.70
2024-01-29T14:26:56.565Z,5.90
2024-01-29T14:29:25.365Z,4.90
2024-01-29T14:31:57.062Z,6.00
2024-01-29T14:34:25.590Z,5.90
2024-01-29T14:36:53.412Z,6.00
2024-01-29T14:39:21.029Z,7.40
2024-01-29T14:41:49.478Z,6.10
2024-01-29T14:44:16.961Z,6.50
2024-01-29T14:46:44.537Z,7.30
2024-01-29T14:49:12.187Z,7.60
2024-01-29T14:51:39.766Z,7.90
2024-01-29T14:54:07.318Z,7.60
2024-01-29T14:56:34.958Z,8.30
2024-01-29T14:59:03.357Z,8.20
2024-01-29T15:01:31.296Z,8.10
2024-01-29T15:03:59.068Z,9.10
2024-01-29T15:06:27.187Z,9.60
2024-01-29T15:08:55.158Z,11.30
2024-01-29T15:11:22.804Z,13.20
2024-01-29T15:13:52.012Z,14.60
2024-01-29T15:16:19.620Z,14.40
2024-01-29T15:18:47.285Z,13.30
2024-01-29T15:21:14.975Z,13.50
2024-01-29T15:23:42.423Z,14.00
2024-01-29T15:26:09.907Z,14.20
2024-01-29T15:28:37.477Z,14.90
2024-01-29T15:31:05.029Z,18.20
2024-01-29T15:33:34.086Z,17.90
2024-01-29T15:36:04.431Z,16.00
2024-01-29T15:38:32.639Z,14.00
2024-01-29T15:41:00.266Z,13.50
2024-01-29T15:43:30.121Z,13.60
2024-01-29T15:45:57.819Z,13.70
2024-01-29T15:48:26.394Z,14.10
2024-01-29T15:50:54.327Z,13.70
2024-01-29T15:53:21.674Z,12.90
2024-01-29T15:55:49.033Z,13.20
2024-01-29T15:58:16.611Z,13.80
2024-01-29T16:00:44.095Z,14.10
2024-01-29T16:03:11.696Z,14.30
2024-01-29T16:05:39.270Z,15.70
2024-01-29T16:08:12.324Z,16.80
2024-01-29T16:10:39.764Z,16.60
2024-01-29T16:13:07.260Z,18.20
2024-01-29T16:15:34.940Z,18.60
2024-01-29T16:18:03.823Z,18.80
2024-01-29T16:20:31.464Z,18.40
2024-01-29T16:22:59.133Z,18.10
2024-01-29T16:25:26.704Z,19.00
2024-01-29T16:27:54.219Z,19.70
2024-01-29T16:30:21.677Z,22.40
2024-01-29T16:32:49.357Z,21.10
2024-01-29T16:35:18.118Z,21.40
2024-01-29T16:37:45.647Z,19.60
2024-01-29T16:40:14.417Z,20.10
2024-01-29T16:42:42.145Z,18.90
2024-01-29T16:45:10.025Z,19.60
2024-01-29T16:47:41.865Z,17.80
2024-01-29T16:50:10.566Z,16.70
2024-01-29T16:52:38.599Z,16.90
2024-01-29T16:55:06.224Z,17.10
2024-01-29T16:57:34.108Z,15.50
2024-01-29T17:00:01.947Z,15.30
2024-01-29T17:02:29.509Z,15.00
2024-01-29T17:04:57.096Z,14.70
2024-01-29T17:07:30.995Z,14.80
2024-01-29T17:09:58.603Z,15.00
2024-01-29T17:12:26.047Z,15.10
2024-01-29T17:14:53.538Z,15.60
2024-01-29T17:17:20.995Z,16.60
2024-01-29T17:19:48.628Z,17.00
2024-01-29T17:22:16.389Z,17.20
2024-01-29T17:24:46.029Z,17.10
2024-01-29T17:27:13.645Z,18.50
2024-01-29T17:29:41.239Z,14.50
2024-01-29T17:32:09.580Z,13.20
2024-01-29T17:34:40.456Z,12.90
2024-01-29T17:37:08.001Z,13.90
2024-01-29T17:39:35.720Z,13.60
2024-01-29T17:42:05.225Z,13.60
2024-01-29T17:44:32.615Z,13.60
2024-01-29T17:47:00.309Z,13.10
2024-01-29T17:49:27.912Z,13.20
2024-01-29T17:51:55.512Z,14.60
2024-01-29T17:54:23.037Z,14.50
2024-01-29T17:56:50.925Z,17.60
2024-01-29T17:59:18.376Z,14.00
2024-01-29T18:01:45.992Z,16.00
2024-01-29T18:04:13.590Z,16.20
2024-01-29T18:06:48.570Z,16.80
2024-01-29T18:09:17.616Z,18.50
2024-01-29T18:11:47.150Z,16.50
2024-01-29T18:14:15.931Z,14.50
2024-01-29T18:16:45.851Z,14.30
2024-01-29T18:19:13.405Z,15.20
2024-01-29T18:21:41.258Z,15.20
2024-01-29T18:24:16.231Z,15.80
2024-01-29T18:26:47.805Z,14.80
2024-01-29T18:29:15.639Z,14.70
2024-01-29T18:31:43.035Z,15.80
2024-01-29T18:34:10.569Z,15.50
2024-01-29T18:36:38.260Z,15.60
2024-01-29T18:39:05.734Z,16.60
2024-01-29T18:41:33.313Z,16.80
2024-01-29T18:44:00.791Z,15.60
2024-01-29T18:46:28.276Z,14.90
2024-01-29T18:48:55.912Z,15.80
2024-01-29T18:51:26.327Z,16.80
2024-01-29T18:53:54.880Z,17.30
2024-01-29T18:56:23.216Z,19.00
2024-01-29T18:58:51.335Z,21.20
2024-01-29T19:01:21.314Z,21.70
2024-01-29T19:03:49.156Z,21.10
2024-01-29T19:06:16.996Z,23.00
2024-01-29T19:08:44.449Z,23.30
2024-01-29T19:11:11.922Z,24.40
2024-01-29T19:13:39.491Z,23.40
2024-01-29T19:16:07.261Z,22.00
2024-01-29T19:18:35.346Z,24.20
2024-01-29T19:21:02.948Z,21.00
2024-01-29T19:23:30.896Z,22.10
2024-01-29T19:25:58.350Z,22.20
2024-01-29T19:28:28.116Z,21.50
2024-01-29T19:30:55.809Z,19.00
2024-01-29T19:33:23.709Z,19.80
2024-01-29T19:35:53.920Z,20.10
2024-01-29T19:38:23.747Z,22.20
2024-01-29T19:40:51.465Z,24.30
2024-01-29T19:43:19.158Z,25.90
2024-01-29T19:45:47.299Z,24.70
2024-01-29T19:48:14.862Z,21.50
2024-01-29T19:50:42.521Z,24.50
2024-01-29T19:53:09.980Z,23.00
2024-01-29T19:55:37.650Z,23.00
2024-01-29T19:58:05.107Z,23.20
2024-01-29T20:00:32.601Z,23.70
2024-01-29T20:03:00.810Z,25.30
2024-01-29T20:05:28.664Z,23.50
2024-01-29T20:07:56.227Z,22.80
2024-01-29T20:10:24.043Z,24.90
2024-01-29T20:12:51.986Z,24.10
2024-01-29T20:15:19.963Z,25.10
2024-01-29T20:17:47.463Z,26.30
2024-01-29T20:20:15.202Z,26.90
2024-01-29T20:22:42.991Z,26.20
2024-01-29T20:25:10.828Z,26.10
2024-01-29T20:27:40.418Z,27.10
2024-01-29T20:30:09.840Z,29.00
2024-01-29T20:32:42.081Z,28.60
2024-01-29T20:35:12.481Z,27.60
2024-01-29T20:37:40.452Z,26.90
2024-01-29T20:40:08.878Z,28.00
2024-01-29T20:42:36.796Z,27.50
2024-01-29T20:45:05.297Z,27.00
2024-01-29T20:47:32.742Z,26.70
2024-01-29T20:50:00.645Z,26.60
2024-01-29T20:52:28.656Z,26.90
2024-01-29T20:55:03.804Z,27.20
2024-01-29T20:57:39.051Z,27.70
2024-01-29T21:00:07.536Z,28.40
2024-01-29T21:02:35.036Z,27.70
2024-01-29T21:05:02.902Z,28.80
2024-01-29T21:07:30.664Z,28.00
2024-01-29T21:09:58.221Z,27.50
2024-01-29T21:12:26.343Z,26.90
2024-01-29T21:14:53.826Z,26.50
2024-01-29T21:17:21.373Z,26.00
2024-01-29T21:19:48.862Z,26.30
2024-01-29T21:22:16.442Z,27.00
2024-01-29T21:24:43.960Z,25.40
2024-01-29T21:27:11.505Z,25.80
2024-01-29T21:29:40.228Z,26.50
2024-01-29T21:32:10.075Z,24.50
2024-01-29T21:34:38.239Z,24.10
2024-01-29T21:37:05.761Z,24.40
2024-01-29T21:39:33.829Z,22.30
2024-01-29T21:42:01.208Z,24.70
2024-01-29T21:44:28.801Z,23.20
2024-01-29T21:46:56.209Z,22.80
2024-01-29T21:49:23.900Z,22.80
2024-01-29T21:51:51.553Z,23.30
2024-01-29T21:54:19.158Z,22.00
2024-01-29T21:56:46.520Z,21.80
2024-01-29T21:59:13.897Z,22.80
2024-01-29T22:01:41.419Z,23.70
2024-01-29T22:04:09.306Z,24.70
2024-01-29T22:06:36.914Z,23.70
2024-01-29T22:09:05.391Z,24.70
2024-01-29T22:11:32.832Z,24.40
2024-01-29T22:14:00.216Z,23.60
2024-01-29T22:16:27.736Z,25.00
2024-01-29T22:18:55.376Z,25.10
2024-01-29T22:21:23.154Z,24.80
2024-01-29T22:23:50.603Z,24.70
2024-01-29T22:26:18.027Z,24.30
2024-01-29T22:28:47.782Z,24.50
2024-01-29T22:31:15.403Z,23.90
2024-01-29T22:33:43.285Z,24.10
2024-01-29T22:36:11.133Z,23.80
2024-01-29T22:38:39.759Z,23.80
2024-01-29T22:41:09.438Z,24.10
2024-01-29T22:43:37.015Z,23.70
2024-01-29T22:46:04.734Z,24.40
2024-01-29T22:48:32.357Z,23.80
2024-01-29T22:50:59.825Z,22.90
2024-01-29T22:53:27.215Z,22.50
2024-01-29T22:55:54.594Z,22.30
2024-01-29T22:58:22.115Z,22.10
2024-01-29T23:00:52.025Z,22.50
2024-01-29T23:03:20.792Z,23.70
2024-01-29T23:05:48.163Z,23.00
2024-01-29T23:08:16.955Z,22.60
2024-01-29T23:10:44.442Z,22.50
2024-01-29T23:13:13.973Z,22.30
2024-01-29T23:15:41.512Z,22.50
2024-01-29T23:18:09.865Z,22.80
2024-01-29T23:20:37.439Z,22.90
2024-01-29T23:23:05.664Z,22.80
2024-01-29T23:25:33.120Z,23.90
2024-01-29T23:28:00.518Z,23.30
2024-01-29T23:30:27.870Z,24.20
2024-01-29T23:32:55.574Z,22.70
2024-01-29T23:35:23.141Z,22.10
2024-01-29T23:37:51.025Z,21.00
2024-01-29T23:40:18.650Z,22.20
2024-01-29T23:42:46.154Z,23.80
2024-01-29T23:45:13.586Z,22.50
2024-01-29T23:47:40.936Z,23.50
2024-01-29T23:50:08.955Z,24.00
2024-01-29T23:52:36.566Z,23.50
2024-01-29T23:55:05.536Z,22.70
2024-01-29T23:57:32.998Z,23.40
